createdAt,value
2023-03-06T00:07:39.406Z,0.00
2023-03-06T00:17:45.729Z,0.00
2023-03-06T00:27:52.871Z,0.00
2023-03-06T00:37:59.568Z,0.00
2023-03-06T00:48:06.937Z,0.00
2023-03-06T00:58:13.932Z,0.00
2023-03-06T01:08:21.486Z,0.00
2023-03-06T01:18:28.792Z,0.00
2023-03-06T01:28:35.989Z,0.00
2023-03-06T01:38:42.783Z,0.00
2023-03-06T01:48:50.124Z,0.00
2023-03-06T01:58:56.676Z,0.00
2023-03-06T02:09:03.901Z,0.00
2023-03-06T02:19:10.717Z,0.00
2023-03-06T02:29:17.885Z,0.00
2023-03-06T02:39:25.072Z,0.00
2023-03-06T02:49:32.123Z,0.00
2023-03-06T02:59:39.159Z,0.00
2023-03-06T03:09:46.432Z,0.00
2023-03-06T03:19:53.246Z,0.00
2023-03-06T03:30:00.788Z,0.00
2023-03-06T03:40:08.306Z,0.00
2023-03-06T03:50:15.566Z,0.00
2023-03-06T04:00:22.252Z,0.00
2023-03-06T04:10:29.323Z,0.00
2023-03-06T04:20:36.378Z,0.00
2023-03-06T04:30:43.423Z,0.00
2023-03-06T04:40:50.967Z,0.00
2023-03-06T04:50:59.160Z,0.00
2023-03-06T05:01:06.966Z,0.00
2023-03-06T05:11:14.090Z,424.00
2023-03-06T05:21:20.959Z,416.00
2023-03-06T05:31:27.799Z,412.00
2023-03-06T05:41:34.403Z,412.00
2023-03-06T05:51:40.846Z,416.00
2023-03-06T06:01:48.109Z,420.00
2023-03-06T06:11:55.154Z,424.00
2023-03-06T06:22:02.262Z,428.00
2023-03-06T06:32:09.374Z,432.00
2023-03-06T06:42:29.318Z,444.00
2023-03-06T06:52:28.307Z,452.00
2023-03-06T07:02:35.597Z,468.00
2023-03-06T07:12:42.338Z,468.00
2023-03-06T07:22:51.639Z,524.00
2023-03-06T07:32:59.700Z,544.00
2023-03-06T07:43:18.811Z,576.00
2023-03-06T07:53:19.757Z,612.00
2023-03-06T08:03:26.789Z,552.00
2023-03-06T08:13:33.393Z,548.00
2023-03-06T08:23:40.828Z,584.00
2023-03-06T08:33:47.727Z,576.00
2023-03-06T08:43:54.529Z,580.00
2023-03-06T08:54:01.547Z,600.00
2023-03-06T09:04:08.590Z,572.00
2023-03-06T09:14:15.648Z,544.00
2023-03-06T09:24:23.301Z,552.00
2023-03-06T09:34:30.290Z,604.00
2023-03-06T09:44:37.348Z,608.00
2023-03-06T09:54:44.564Z,576.00
2023-03-06T10:04:51.503Z,608.00
2023-03-06T10:14:57.991Z,564.00
2023-03-06T10:25:05.269Z,568.00
2023-03-06T10:35:12.265Z,580.00
2023-03-06T10:45:19.786Z,648.00
2023-03-06T10:55:27.198Z,660.00
2023-03-06T11:05:34.053Z,684.00
2023-03-06T11:15:41.165Z,676.00
2023-03-06T11:25:47.760Z,684.00
2023-03-06T11:35:54.621Z,676.00
2023-03-06T11:46:01.619Z,680.00
2023-03-06T11:56:08.642Z,724.00
2023-03-06T12:06:16.051Z,784.00
2023-03-06T12:16:23.181Z,780.00
2023-03-06T12:26:30.422Z,808.00
2023-03-06T12:53:29.570Z,828.00
2023-03-06T13:03:30.433Z,848.00
2023-03-06T13:13:38.631Z,788.00
2023-03-06T13:23:45.990Z,744.00
2023-03-06T13:33:54.493Z,720.00
2023-03-06T13:44:02.493Z,712.00
2023-03-06T13:54:10.671Z,664.00
2023-03-06T14:04:19.298Z,672.00
2023-03-06T14:14:27.335Z,616.00
2023-03-06T14:24:35.578Z,588.00
2023-03-06T14:34:43.492Z,612.00
2023-03-06T14:44:51.558Z,600.00
2023-03-06T14:54:59.843Z,624.00
2023-03-06T15:05:07.987Z,612.00
2023-03-06T15:15:16.876Z,616.00
2023-03-06T15:25:24.892Z,592.00
2023-03-06T15:35:36.421Z,584.00
2023-03-06T15:45:46.519Z,524.00
2023-03-06T15:55:55.109Z,472.00
2023-03-06T16:06:04.402Z,464.00
2023-03-06T16:16:11.863Z,456.00
2023-03-06T16:26:20.269Z,448.00
2023-03-06T16:36:28.001Z,436.00
2023-03-06T16:46:36.171Z,420.00
2023-03-06T16:56:44.070Z,416.00
2023-03-06T17:06:52.217Z,416.00
2023-03-06T17:17:00.371Z,412.00
2023-03-06T17:27:08.281Z,0.00
2023-03-06T17:37:16.576Z,0.00
2023-03-06T17:47:24.847Z,0.00
2023-03-06T17:57:33.561Z,0.00
2023-03-06T18:07:41.568Z,0.00
2023-03-06T18:17:49.525Z,0.00
2023-03-06T18:27:57.705Z,0.00
2023-03-06T18:38:05.867Z,0.00
2023-03-06T18:48:14.065Z,0.00
2023-03-06T18:58:22.745Z,0.00
2023-03-06T19:08:30.715Z,0.00
2023-03-06T19:18:38.677Z,0.00
2023-03-06T19:28:46.650Z,0.00
2023-03-06T19:38:55.136Z,0.00
2023-03-06T19:49:03.012Z,0.00
2023-03-06T19:59:10.987Z,0.00
2023-03-06T20:09:19.263Z,0.00
2023-03-06T20:19:27.303Z,0.00
2023-03-06T20:29:35.303Z,0.00
2023-03-06T20:39:43.235Z,0.00
2023-03-06T20:49:51.661Z,0.00
2023-03-06T21:00:00.561Z,0.00
2023-03-06T21:10:08.587Z,0.00
2023-03-06T21:20:16.718Z,0.00
2023-03-06T21:30:24.356Z,0.00
2023-03-06T21:40:32.366Z,0.00
2023-03-06T21:50:40.628Z,0.00
2023-03-06T22:00:48.771Z,0.00
2023-03-06T22:10:56.731Z,0.00
2023-03-06T22:21:05.141Z,0.00
2023-03-06T22:31:12.462Z,0.00
2023-03-06T22:41:21.032Z,0.00
2023-03-06T22:51:29.088Z,0.00
2023-03-06T23:01:37.011Z,0.00
2023-03-06T23:11:44.920Z,0.00
2023-03-06T23:21:52.841Z,0.00
2023-03-06T23:32:01.098Z,0.00
2023-03-06T23:42:09.161Z,0.00
2023-03-06T23:52:17.353Z,0.00
